Time;durP1;ratioP1;P1;durP2;ratioP2;P2;SDS_P1;SDS_P2;PMS_P1;PMS_P2;Temp;Humidity;BMP_temperature;BMP_pressure;BME280_temperature;BME280_humidity;BME280_pressure;Samples;Min_cycle;Max_cycle;Signal;HPM_P1;HPM_P2
2023/06/02 00:00:01;;;;;;;10.37;6.67;;;;;;;10.91;100.00;101911.81;5011764;28;20444;-42
2023/06/02 00:02:29;;;;;;;9.40;6.07;;;;;;;10.94;100.00;101924.81;5012379;28;20942;-44
2023/06/02 00:04:59;;;;;;;10.07;6.10;;;;;;;11.00;100.00;101921.47;5012429;28;20457;-43
2023/06/02 00:07:27;;;;;;;15.27;5.97;;;;;;;11.04;100.00;101911.28;5012523;28;21030;-43
2023/06/02 00:09:55;;;;;;;5.70;4.80;;;;;;;11.08;100.00;101918.75;5012323;28;20495;-43
2023/06/02 00:12:23;;;;;;;7.43;4.80;;;;;;;11.14;100.00;101911.09;5011730;28;20465;-43
2023/06/02 00:14:52;;;;;;;6.83;5.27;;;;;;;11.19;100.00;101914.06;5012298;28;20963;-41
2023/06/02 00:17:20;;;;;;;12.20;5.20;;;;;;;11.23;100.00;101904.72;5012416;28;20432;-43
2023/06/02 00:19:48;;;;;;;5.37;4.87;;;;;;;11.28;100.00;101902.38;5012412;28;20444;-43
2023/06/02 00:22:17;;;;;;;6.60;5.37;;;;;;;11.29;100.00;101904.84;5011556;28;20511;-41
2023/06/02 00:24:45;;;;;;;5.50;4.93;;;;;;;11.34;100.00;101904.34;5012086;28;20541;-43
2023/06/02 00:27:13;;;;;;;5.20;4.70;;;;;;;11.38;100.00;101906.47;5014306;28;20512;-43
2023/06/02 00:29:41;;;;;;;5.93;4.90;;;;;;;11.40;100.00;101901.81;5032125;28;20495;-43
2023/06/02 00:32:08;;;;;;;5.07;4.57;;;;;;;11.43;100.00;101906.81;5031037;28;20464;-45
2023/06/02 00:34:36;;;;;;;4.93;4.43;;;;;;;11.42;100.00;101902.47;5031715;28;20452;-41
2023/06/02 00:37:04;;;;;;;6.60;4.67;;;;;;;11.41;100.00;101898.13;5031713;28;20486;-42
2023/06/02 00:39:34;;;;;;;5.20;4.80;;;;;;;11.38;100.00;101906.47;5031701;28;20956;-41
2023/06/02 00:42:02;;;;;;;5.47;4.97;;;;;;;11.36;100.00;101903.16;5031109;28;20906;-42
2023/06/02 00:44:30;;;;;;;4.63;4.20;;;;;;;11.37;100.00;101906.66;5031311;28;20514;-44
2023/06/02 00:46:57;;;;;;;5.30;4.73;;;;;;;11.38;100.00;101905.66;5031518;28;20771;-43
2023/06/02 00:49:26;;;;;;;4.50;4.20;;;;;;;11.37;100.00;101904.00;5031517;28;20432;-42
2023/06/02 00:51:54;;;;;;;4.63;4.23;;;;;;;11.37;100.00;101907.50;5031010;28;20491;-44
2023/06/02 00:54:22;;;;;;;5.37;4.50;;;;;;;11.38;100.00;101898.47;5031454;28;20456;-41
2023/06/02 00:56:54;;;;;;;4.63;4.30;;;;;;;11.38;100.00;101903.00;5031820;28;20865;-42
2023/06/02 00:59:23;;;;;;;4.67;4.47;;;;;;;11.37;100.00;101906.66;5031515;28;20413;-42
2023/06/02 01:01:51;;;;;;;6.73;4.90;;;;;;;11.35;100.00;101903.34;5030734;28;20456;-41
2023/06/02 01:04:20;;;;;;;5.10;4.53;;;;;;;11.35;100.00;101914.84;5031395;28;20471;-43
2023/06/02 01:06:49;;;;;;;5.40;4.87;;;;;;;11.33;100.00;101911.50;5031675;28;20436;-42
2023/06/02 01:09:18;;;;;;;4.70;4.50;;;;;;;11.29;100.00;101914.72;5031460;28;20471;-42
2023/06/02 01:11:47;;;;;;;6.90;4.40;;;;;;;11.28;100.00;101915.72;5030914;28;20456;-43
2023/06/02 01:14:16;;;;;;;4.60;4.17;;;;;;;11.27;100.00;101908.69;5031284;28;20465;-43
2023/06/02 01:16:49;;;;;;;4.90;4.47;;;;;;;11.21;100.00;101918.22;5031621;28;20467;-42
2023/06/02 01:19:21;;;;;;;4.20;3.83;;;;;;;11.17;100.00;101924.91;5031595;28;20439;-42
2023/06/02 01:21:57;;;;;;;4.97;4.47;;;;;;;11.11;100.00;101925.59;5030751;28;20548;-45
2023/06/02 01:24:30;;;;;;;10.83;4.53;;;;;;;11.03;100.00;101923.78;5031347;28;20502;-42
2023/06/02 01:26:58;;;;;;;4.57;4.20;;;;;;;11.02;100.00;101918.66;5026476;28;20490;-42
2023/06/02 01:29:27;;;;;;;5.73;4.20;;;;;;;10.98;100.00;101917.31;5031429;28;20830;-44
2023/06/02 01:31:58;;;;;;;4.73;4.27;;;;;;;10.98;100.00;101919.97;5030652;28;20537;-43
2023/06/02 01:34:32;;;;;;;5.93;4.40;;;;;;;10.94;100.00;101922.16;5031193;28;20535;-42
2023/06/02 01:37:01;;;;;;;6.37;4.00;;;;;;;10.92;100.00;101924.16;5031327;28;20435;-43
2023/06/02 01:39:31;;;;;;;4.50;4.10;;;;;;;10.88;100.00;101924.66;5031046;28;20479;-41
2023/06/02 01:42:01;;;;;;;4.30;4.00;;;;;;;10.87;100.00;101926.50;5030540;28;20476;-42
2023/06/02 01:44:30;;;;;;;5.27;4.87;;;;;;;10.86;100.00;101929.34;5031361;28;20459;-43
2023/06/02 01:46:58;;;;;;;5.30;4.90;;;;;;;10.83;100.00;101935.84;5031179;28;20436;-43
2023/06/02 01:49:26;;;;;;;5.20;4.80;;;;;;;10.79;100.00;101933.69;5031053;28;20514;-43
2023/06/02 01:51:54;;;;;;;4.90;4.63;;;;;;;10.79;100.00;101934.50;5030479;28;20464;-44
2023/06/02 01:54:23;;;;;;;7.07;5.03;;;;;;;10.71;100.00;101936.38;5031210;28;20529;-42
2023/06/02 01:56:52;;;;;;;4.70;4.50;;;;;;;10.71;100.00;101947.03;5033918;28;20989;-42
2023/06/02 01:59:20;;;;;;;4.80;4.40;;;;;;;10.69;100.00;101933.88;5034786;28;20428;-42
2023/06/02 02:01:48;;;;;;;4.33;4.03;;;;;;;10.70;100.00;101935.53;5033867;28;21004;-42
2023/06/02 02:04:16;;;;;;;6.30;4.67;;;;;;;10.68;100.00;101936.69;5034336;28;20837;-41
2023/06/02 02:06:49;;;;;;;4.63;4.30;;;;;;;10.66;100.00;101936.88;5034686;28;20431;-42
2023/06/02 02:09:17;;;;;;;5.00;4.60;;;;;;;10.59;100.00;101943.03;5034369;28;21050;-45
2023/06/02 02:11:44;;;;;;;4.67;4.30;;;;;;;10.57;100.00;101938.69;5033815;28;20463;-42
2023/06/02 02:14:14;;;;;;;4.90;4.50;;;;;;;10.57;100.00;101955.72;5034283;28;20482;-42
2023/06/02 02:16:45;;;;;;;4.13;3.90;;;;;;;10.50;100.00;101953.72;5034325;28;20436;-44
2023/06/02 02:19:16;;;;;;;6.50;5.67;;;;;;;10.51;100.00;101951.91;5034323;28;20440;-41
2023/06/02 02:21:43;;;;;;;4.20;3.90;;;;;;;10.49;100.00;101953.88;5033508;28;20468;-43
2023/06/02 02:24:13;;;;;;;5.87;5.27;;;;;;;10.55;100.00;101961.22;5034077;28;20448;-43
2023/06/02 02:26:40;;;;;;;3.83;3.57;;;;;;;10.55;100.00;101964.72;5031416;28;20997;-43
2023/06/02 02:29:08;;;;;;;4.23;3.83;;;;;;;10.56;100.00;101965.56;5032314;28;20495;-43
2023/06/02 02:31:38;;;;;;;4.00;3.70;;;;;;;10.55;100.00;101961.22;5033485;28;21169;-41
2023/06/02 02:34:06;;;;;;;3.90;3.70;;;;;;;10.60;100.00;101968.72;5033789;28;20459;-45
2023/06/02 02:36:34;;;;;;;4.77;4.53;;;;;;;10.66;100.00;101965.38;5033890;28;20437;-44
2023/06/02 02:39:03;;;;;;;4.63;4.23;;;;;;;10.71;100.00;101960.38;5034038;28;20462;-42
2023/06/02 02:41:31;;;;;;;4.80;4.40;;;;;;;10.75;100.00;101970.53;5033206;28;20898;-42
2023/06/02 02:43:58;;;;;;;5.13;4.73;;;;;;;10.78;100.00;101962.19;5033629;28;20451;-43
2023/06/02 02:46:26;;;;;;;4.80;4.33;;;;;;;10.82;100.00;101974.19;5033758;28;21004;-43
2023/06/02 02:48:56;;;;;;;7.17;4.53;;;;;;;10.84;100.00;101968.72;5033956;28;20468;-45
2023/06/02 02:51:24;;;;;;;4.63;4.43;;;;;;;10.85;100.00;101970.34;5030632;28;20858;-44
2023/06/02 02:53:52;;;;;;;4.60;4.20;;;;;;;10.85;100.00;101957.00;5033579;28;20506;-45
2023/06/02 02:56:22;;;;;;;5.27;4.87;;;;;;;10.84;100.00;101971.38;5033556;28;20443;-42
2023/06/02 02:58:50;;;;;;;5.30;4.70;;;;;;;10.90;100.00;101965.38;5033847;28;20428;-43
2023/06/02 03:01:18;;;;;;;9.43;5.07;;;;;;;10.89;100.00;101971.69;5033152;28;20460;-44
2023/06/02 03:03:46;;;;;;;7.07;5.40;;;;;;;10.90;100.00;101973.38;5033049;28;20547;-42
2023/06/02 03:06:18;;;;;;;5.40;4.90;;;;;;;10.91;100.00;101975.03;5033110;28;20447;-42
2023/06/02 03:08:46;;;;;;;5.50;5.10;;;;;;;10.91;100.00;101967.03;5033228;28;20476;-44
2023/06/02 03:11:14;;;;;;;5.90;5.30;;;;;;;10.96;100.00;101983.38;5032940;28;20551;-44
2023/06/02 03:13:42;;;;;;;5.13;4.73;;;;;;;11.00;100.00;101979.34;5033086;28;20490;-43
2023/06/02 03:16:10;;;;;;;5.23;5.00;;;;;;;11.05;100.00;101979.69;5033363;28;20435;-42
2023/06/02 03:18:38;;;;;;;11.50;5.00;;;;;;;11.06;100.00;101984.00;5033228;28;20432;-48
2023/06/02 03:21:06;;;;;;;6.13;5.53;;;;;;;11.08;100.00;101988.19;5029449;28;20552;-41
2023/06/02 03:23:36;;;;;;;6.70;5.20;;;;;;;11.17;100.00;101996.19;5032592;28;20463;-42
2023/06/02 03:26:04;;;;;;;5.80;5.30;;;;;;;11.22;100.00;101994.69;5032956;28;20476;-44
2023/06/02 03:28:32;;;;;;;5.20;4.80;;;;;;;11.29;100.00;102006.31;5020060;28;20494;-43
2023/06/02 03:31:00;;;;;;;5.93;4.97;;;;;;;11.34;100.00;101992.47;5032309;28;20492;-42
2023/06/02 03:33:28;;;;;;;7.90;5.13;;;;;;;11.34;100.00;102006.66;5032730;28;20829;-44
2023/06/02 03:35:57;;;;;;;6.07;5.43;;;;;;;11.36;100.00;102007.31;5032717;28;20492;-48
2023/06/02 03:38:24;;;;;;;6.77;5.93;;;;;;;11.43;100.00;102002.97;5032400;28;20458;-43
2023/06/02 03:40:53;;;;;;;6.20;5.63;;;;;;;11.50;100.00;102000.41;5032309;28;20460;-45
2023/06/02 03:43:21;;;;;;;6.33;5.83;;;;;;;11.52;100.00;102003.78;5032611;28;20455;-46
2023/06/02 03:45:49;;;;;;;5.80;5.43;;;;;;;11.49;100.00;102004.94;5032733;28;20467;-44
2023/06/02 03:48:17;;;;;;;6.77;5.93;;;;;;;11.56;100.00;102005.91;5031378;28;20436;-47
2023/06/02 03:50:45;;;;;;;6.63;6.20;;;;;;;11.64;100.00;102005.91;5031803;28;20472;-42
2023/06/02 03:53:12;;;;;;;7.37;6.00;;;;;;;11.72;100.00;102017.56;5032760;28;20900;-46
2023/06/02 03:55:40;;;;;;;8.57;6.13;;;;;;;11.81;100.00;102011.19;5032676;28;20440;-46
2023/06/02 03:58:09;;;;;;;6.73;6.13;;;;;;;11.93;100.00;102009.81;5032532;28;20434;-49
2023/06/02 04:00:37;;;;;;;6.90;6.20;;;;;;;11.91;100.00;102015.34;5031950;28;20495;-43
2023/06/02 04:03:04;;;;;;;7.33;6.63;;;;;;;11.97;100.00;102022.66;5031852;28;20464;-43
2023/06/02 04:05:32;;;;;;;6.90;6.20;;;;;;;11.99;100.00;102019.81;5032557;28;20449;-43
2023/06/02 04:08:00;;;;;;;9.17;8.03;;;;;;;12.06;100.00;102028.81;5032237;28;20443;-42
2023/06/02 04:10:30;;;;;;;7.63;6.93;;;;;;;12.10;100.00;102032.78;5031743;28;20474;-43
2023/06/02 04:12:57;;;;;;;10.87;7.70;;;;;;;12.20;100.00;102034.22;5031947;28;20845;-42
2023/06/02 04:15:26;;;;;;;8.87;7.97;;;;;;;12.32;100.00;102041.84;5031973;28;21006;-42
2023/06/02 04:17:54;;;;;;;12.67;9.10;;;;;;;12.38;100.00;102054.53;5031441;28;20464;-42
2023/06/02 04:20:22;;;;;;;9.20;8.30;;;;;;;12.47;100.00;102043.59;5031565;28;20506;-47
2023/06/02 04:22:50;;;;;;;9.43;8.53;;;;;;;12.59;100.00;102057.41;5031753;28;20515;-44
2023/06/02 04:25:18;;;;;;;10.87;8.30;;;;;;;12.65;100.00;102072.75;5031735;28;20433;-47
2023/06/02 04:27:46;;;;;;;10.50;9.33;;;;;;;12.75;100.00;102059.97;5027180;28;20459;-47
2023/06/02 04:30:14;;;;;;;11.50;8.97;;;;;;;12.93;100.00;102056.97;5031146;28;20538;-44
2023/06/02 04:32:43;;;;;;;19.70;9.90;;;;;;;13.00;100.00;102065.94;5031612;28;20436;-45
2023/06/02 04:35:11;;;;;;;9.20;8.33;;;;;;;13.09;100.00;102067.56;5031945;28;20459;-44
2023/06/02 04:37:39;;;;;;;12.30;8.90;;;;;;;13.19;100.00;102065.47;5031954;28;20436;-45
2023/06/02 04:40:09;;;;;;;9.10;8.30;;;;;;;13.19;100.00;102068.16;5031415;28;20814;-46
2023/06/02 04:42:38;;;;;;;15.80;10.20;;;;;;;13.18;100.00;102072.69;5031530;28;20436;-45
2023/06/02 04:45:11;;;;;;;10.17;8.80;;;;;;;13.20;100.00;102083.22;5031663;28;20452;-44
2023/06/02 04:47:39;;;;;;;11.27;8.90;;;;;;;13.27;100.00;102076.94;5031724;28;20439;-46
2023/06/02 04:50:10;;;;;;;10.80;8.63;;;;;;;13.29;100.00;102080.28;5030812;28;21075;-45
2023/06/02 04:52:39;;;;;;;10.60;9.43;;;;;;;13.31;100.00;102085.47;5031487;28;20940;-48
2023/06/02 04:55:09;;;;;;;10.10;9.00;;;;;;;13.32;100.00;102082.59;5031425;28;20474;-42
2023/06/02 04:57:37;;;;;;;12.37;9.77;;;;;;;13.36;100.00;102090.25;5031862;28;20853;-49
2023/06/02 05:00:07;;;;;;;12.70;9.90;;;;;;;13.36;100.00;102084.91;5031462;28;20456;-49
2023/06/02 05:02:35;;;;;;;13.33;9.50;;;;;;;13.32;100.00;102099.69;5031500;28;20487;-46
2023/06/02 05:05:05;;;;;;;13.33;8.33;;;;;;;13.25;100.00;102097.75;5031673;28;20803;-46
2023/06/02 05:07:34;;;;;;;11.17;8.40;;;;;;;13.18;100.00;102091.44;5031484;28;20459;-43
2023/06/02 05:10:01;;;;;;;9.27;8.40;;;;;;;13.17;100.00;102097.78;5030863;28;21031;-48
2023/06/02 05:12:29;;;;;;;10.33;9.27;;;;;;;13.26;100.00;102099.38;5031599;28;20432;-44
2023/06/02 05:14:57;;;;;;;9.10;8.23;;;;;;;13.30;100.00;102102.53;5031444;28;20456;-44
2023/06/02 05:17:26;;;;;;;9.67;8.77;;;;;;;13.25;100.00;102094.22;5031415;28;20439;-44
2023/06/02 05:19:55;;;;;;;11.63;8.80;;;;;;;13.25;100.00;102099.59;5031421;28;20534;-45
2023/06/02 05:22:23;;;;;;;8.50;7.70;;;;;;;13.20;100.00;102108.13;5030707;28;20936;-42
2023/06/02 05:24:52;;;;;;;12.33;9.17;;;;;;;13.20;100.00;102113.50;5031498;28;20459;-43
2023/06/02 05:27:20;;;;;;;9.60;8.67;;;;;;;13.17;100.00;102119.22;5023631;28;20445;-43
2023/06/02 05:29:47;;;;;;;9.23;8.17;;;;;;;13.30;100.00;102121.28;5028158;28;20479;-49
2023/06/02 05:32:15;;;;;;;11.07;9.13;;;;;;;13.38;100.00;102112.38;5034309;28;20464;-45
2023/06/02 05:34:44;;;;;;;9.20;8.20;;;;;;;13.38;100.00;102123.88;5034930;28;20502;-45
2023/06/02 05:37:12;;;;;;;10.00;8.50;;;;;;;13.49;100.00;102112.75;5035348;28;20925;-44
2023/06/02 05:39:41;;;;;;;11.83;8.63;;;;;;;13.55;100.00;102122.75;5035234;28;20852;-47
2023/06/02 05:42:11;;;;;;;11.33;8.87;;;;;;;13.54;100.00;102129.13;5034402;28;20526;-45
2023/06/02 05:44:38;;;;;;;9.87;7.70;;;;;;;13.49;100.00;102128.00;5034868;28;20542;-44
2023/06/02 05:47:07;;;;;;;13.07;8.20;;;;;;;13.45;100.00;102127.53;5034798;28;20431;-46
2023/06/02 05:49:34;;;;;;;8.70;7.73;;;;;;;13.45;100.00;102137.41;5034686;28;20960;-44
2023/06/02 05:52:02;;;;;;;9.57;8.63;;;;;;;13.47;100.00;102136.19;5034116;28;20468;-44
2023/06/02 05:54:30;;;;;;;11.17;7.90;;;;;;;13.59;100.00;102126.72;5034794;28;20451;-43
2023/06/02 05:56:58;;;;;;;9.83;8.27;;;;;;;13.68;100.00;102136.34;5034792;28;20457;-42
2023/06/02 05:59:27;;;;;;;8.90;7.97;;;;;;;13.70;100.00;102145.03;5034581;28;20496;-48
2023/06/02 06:01:54;;;;;;;8.70;8.10;;;;;;;13.90;100.00;102144.50;5033780;28;20495;-43
2023/06/02 06:04:22;;;;;;;10.23;8.30;;;;;;;13.95;100.00;102136.75;5034276;28;20459;-45
2023/06/02 06:06:50;;;;;;;8.17;7.67;;;;;;;14.10;100.00;102142.91;5034648;28;20798;-43
2023/06/02 06:09:18;;;;;;;8.80;8.00;;;;;;;14.18;100.00;102150.88;5034596;28;20446;-44
2023/06/02 06:11:48;;;;;;;8.10;7.40;;;;;;;14.31;100.00;102143.81;5033716;28;20476;-48
2023/06/02 06:14:16;;;;;;;7.57;7.10;;;;;;;14.46;100.00;102140.31;5034293;28;21012;-48
2023/06/02 06:16:45;;;;;;;9.17;7.60;;;;;;;14.74;100.00;102141.28;5034381;28;20502;-45
2023/06/02 06:19:13;;;;;;;10.40;7.57;;;;;;;14.72;100.00;102151.38;5034344;28;20515;-44
2023/06/02 06:21:41;;;;;;;7.90;7.40;;;;;;;14.84;100.00;102156.03;5033614;28;20468;-48
2023/06/02 06:24:09;;;;;;;8.63;7.10;;;;;;;14.87;100.00;102157.53;5034148;28;20838;-44
2023/06/02 06:26:37;;;;;;;7.60;7.13;;;;;;;14.91;100.00;102161.50;5032106;28;20424;-47
2023/06/02 06:29:05;;;;;;;7.23;6.53;;;;;;;15.49;100.00;102158.59;5031906;28;20456;-45
2023/06/02 06:31:33;;;;;;;9.60;6.90;;;;;;;15.59;100.00;102171.66;5033426;28;20468;-45
2023/06/02 06:34:02;;;;;;;6.23;5.83;;;;;;;15.59;100.00;102174.34;5034143;28;20510;-43
2023/06/02 06:36:30;;;;;;;7.30;6.40;;;;;;;15.39;100.00;102178.72;5033944;28;20451;-47
2023/06/02 06:38:58;;;;;;;6.73;6.13;;;;;;;15.09;100.00;102183.38;5033782;28;20440;-45
2023/06/02 06:41:27;;;;;;;6.50;5.90;;;;;;;15.05;100.00;102186.66;5032411;28;20881;-47
2023/06/02 06:43:55;;;;;;;7.00;6.40;;;;;;;15.02;100.00;102182.50;5033833;28;20822;-47
2023/06/02 06:46:22;;;;;;;6.00;5.57;;;;;;;14.88;100.00;102192.25;5033803;28;20852;-46
2023/06/02 06:48:50;;;;;;;6.50;6.10;;;;;;;14.86;100.00;102183.56;5033755;28;20440;-44
2023/06/02 06:51:20;;;;;;;6.03;5.60;;;;;;;14.83;100.00;102192.00;5033078;28;20480;-45
2023/06/02 06:53:48;;;;;;;6.70;5.70;;;;;;;15.02;100.00;102189.72;5033760;28;20456;-45
2023/06/02 06:56:16;;;;;;;6.57;5.90;;;;;;;14.89;100.00;102212.72;5033822;28;20428;-46
2023/06/02 06:58:44;;;;;;;5.60;5.00;;;;;;;14.96;100.00;102200.19;5033493;28;20479;-44
2023/06/02 07:01:13;;;;;;;5.93;5.53;;;;;;;15.09;100.00;102201.34;5032928;28;20529;-46
2023/06/02 07:03:41;;;;;;;5.77;5.43;;;;;;;15.16;100.00;102200.41;5033276;28;20834;-47
2023/06/02 07:06:12;;;;;;;6.20;5.73;;;;;;;15.35;100.00;102207.03;5033360;28;20498;-47
2023/06/02 07:08:42;;;;;;;6.00;5.50;;;;;;;15.18;100.00;102219.88;5033335;28;20478;-45
2023/06/02 07:11:10;;;;;;;5.93;5.53;;;;;;;15.15;100.00;102219.41;5032954;28;20495;-46
2023/06/02 07:13:38;;;;;;;6.40;5.80;;;;;;;15.36;100.00;102217.56;5033056;28;20479;-45
2023/06/02 07:16:06;;;;;;;5.60;5.30;;;;;;;15.49;100.00;102223.09;5033203;28;20853;-44
2023/06/02 07:18:35;;;;;;;5.37;4.97;;;;;;;15.65;100.00;102240.81;5033236;28;20432;-42
2023/06/02 07:21:03;;;;;;;4.97;4.77;;;;;;;15.85;100.00;102230.22;5032625;28;20456;-46
2023/06/02 07:23:30;;;;;;;5.50;5.10;;;;;;;16.08;100.00;102235.34;5033053;28;20452;-43
2023/06/02 07:25:59;;;;;;;5.50;5.10;;;;;;;16.24;100.00;102235.06;5033172;28;20459;-45
2023/06/02 07:28:27;;;;;;;4.80;4.57;;;;;;;16.45;100.00;102240.38;5028245;28;20933;-44
2023/06/02 07:31:06;;;;;;;5.63;4.70;;;;;;;16.78;100.00;102241.41;5032498;28;21033;-43
2023/06/02 07:33:38;;;;;;;4.63;4.30;;;;;;;17.00;100.00;102240.22;5032692;28;20475;-47
2023/06/02 07:36:06;;;;;;;9.53;4.23;;;;;;;17.08;100.00;102245.41;5033232;28;20471;-43
2023/06/02 07:38:34;;;;;;;4.20;4.00;;;;;;;16.93;100.00;102244.78;5033164;28;20462;-43
2023/06/02 07:41:03;;;;;;;4.87;4.47;;;;;;;16.61;100.00;102261.59;5032412;28;20456;-43
2023/06/02 07:43:31;;;;;;;4.67;4.20;;;;;;;16.40;100.00;102258.97;5032507;28;20544;-49
2023/06/02 07:45:59;;;;;;;4.83;4.23;;;;;;;16.32;100.00;102265.34;5032500;28;20467;-44
2023/06/02 07:48:27;;;;;;;4.40;4.10;;;;;;;16.61;100.00;102264.28;5032856;28;20775;-49
2023/06/02 07:50:55;;;;;;;4.07;3.77;;;;;;;16.76;100.00;102262.28;5032025;28;20475;-43
2023/06/02 07:53:22;;;;;;;6.47;4.40;;;;;;;17.11;100.00;102263.88;5031430;28;20448;-45
2023/06/02 07:55:50;;;;;;;4.00;3.63;;;;;;;17.37;100.00;102267.69;5032478;28;20436;-44
2023/06/02 07:58:20;;;;;;;3.93;3.50;;;;;;;17.61;100.00;102264.44;5032435;28;21040;-44
2023/06/02 08:00:49;;;;;;;4.20;4.00;;;;;;;17.64;100.00;102258.63;5031846;28;20479;-43
2023/06/02 08:03:17;;;;;;;4.37;3.97;;;;;;;17.76;100.00;102273.19;5031829;28;20467;-48
2023/06/02 08:05:45;;;;;;;4.50;4.20;;;;;;;17.99;100.00;102264.66;5032402;28;20813;-44
2023/06/02 08:08:13;;;;;;;4.80;4.40;;;;;;;17.79;99.48;102266.53;5032476;28;20475;-46
2023/06/02 08:10:41;;;;;;;5.40;4.00;;;;;;;18.22;100.00;102265.03;5031628;28;20471;-45
2023/06/02 08:13:11;;;;;;;4.33;4.03;;;;;;;18.52;98.04;102268.97;5031593;28;20525;-44
2023/06/02 08:15:40;;;;;;;4.77;4.57;;;;;;;18.31;96.70;102255.69;5032114;28;20926;-44
2023/06/02 08:18:13;;;;;;;4.13;3.70;;;;;;;18.37;93.83;102260.25;5032231;28;20436;-45
2023/06/02 08:20:44;;;;;;;4.20;3.90;;;;;;;18.77;94.39;102255.59;5031531;28;20874;-46
2023/06/02 08:23:12;;;;;;;4.53;4.10;;;;;;;18.91;91.53;102265.28;5032078;28;20440;-48
2023/06/02 08:25:40;;;;;;;3.67;3.37;;;;;;;18.56;90.26;102259.41;5032238;28;20527;-46
2023/06/02 08:28:09;;;;;;;4.40;4.00;;;;;;;18.62;94.92;102265.81;5027216;28;20459;-44
2023/06/02 08:30:37;;;;;;;4.40;4.00;;;;;;;19.21;94.71;102270.97;5031648;28;20500;-45
2023/06/02 08:33:08;;;;;;;4.50;4.10;;;;;;;19.45;90.85;102264.81;5031479;28;20570;-45
2023/06/02 08:35:37;;;;;;;5.13;4.10;;;;;;;19.38;86.03;102264.03;5031886;28;20466;-43
2023/06/02 08:38:07;;;;;;;4.10;3.80;;;;;;;19.31;87.59;102271.34;5031715;28;20463;-44
2023/06/02 08:40:36;;;;;;;4.90;4.50;;;;;;;19.12;83.74;102272.25;5031420;28;20467;-48
2023/06/02 08:43:06;;;;;;;4.70;4.23;;;;;;;19.09;83.88;102267.28;5031357;28;20530;-44
2023/06/02 08:45:34;;;;;;;3.53;3.33;;;;;;;19.13;86.91;102274.75;5031825;28;20544;-47
2023/06/02 08:48:06;;;;;;;4.60;4.20;;;;;;;19.18;83.41;102276.81;5031665;28;20794;-43
2023/06/02 08:50:37;;;;;;;6.20;4.60;;;;;;;19.32;82.44;102259.47;5031202;28;20462;-46
2023/06/02 08:53:07;;;;;;;3.90;3.70;;;;;;;18.71;86.66;102268.09;5031568;28;20903;-44
2023/06/02 08:55:39;;;;;;;7.53;4.20;;;;;;;18.77;84.53;102283.44;5032058;28;20444;-47
2023/06/02 08:58:09;;;;;;;3.53;3.30;;;;;;;18.80;84.29;102279.47;5031471;28;20439;-44
2023/06/02 09:00:37;;;;;;;3.90;3.70;;;;;;;18.84;82.68;102279.88;5031308;28;20524;-42
2023/06/02 09:03:05;;;;;;;3.53;3.30;;;;;;;18.69;81.66;102280.16;5031087;28;20869;-44
2023/06/02 09:05:35;;;;;;;4.13;3.30;;;;;;;18.72;78.57;102274.31;5034366;28;20922;-43
2023/06/02 09:08:10;;;;;;;4.83;3.50;;;;;;;18.98;81.13;102286.91;5035572;28;20490;-47
2023/06/02 09:10:41;;;;;;;4.90;3.77;;;;;;;18.94;79.45;102281.09;5035199;28;20520;-43
2023/06/02 09:13:09;;;;;;;4.03;3.37;;;;;;;18.73;81.02;102284.06;5035288;28;20479;-44
2023/06/02 09:15:54;;;;;;;3.37;3.23;;;;;;;18.64;77.87;102291.59;5035273;28;20998;-44
2023/06/02 09:18:21;;;;;;;3.53;3.33;;;;;;;18.57;77.15;102298.06;5035666;28;20431;-47
2023/06/02 09:20:53;;;;;;;3.83;3.43;;;;;;;18.46;77.40;102298.66;5035128;28;20493;-44
2023/06/02 09:23:21;;;;;;;3.33;3.03;;;;;;;18.30;76.05;102297.25;5035050;28;20448;-44
2023/06/02 09:25:49;;;;;;;3.33;3.13;;;;;;;18.41;76.98;102285.78;5035368;28;20485;-44
2023/06/02 09:28:17;;;;;;;5.33;3.30;;;;;;;18.17;82.32;102298.09;5019482;28;20467;-49
2023/06/02 09:30:44;;;;;;;3.33;3.10;;;;;;;18.19;84.00;102290.59;5029933;28;20459;-47
2023/06/02 09:33:12;;;;;;;3.40;3.07;;;;;;;18.33;79.85;102301.41;5034968;28;20514;-45
2023/06/02 09:35:41;;;;;;;3.30;3.10;;;;;;;18.20;79.58;102308.47;5035168;28;20770;-47
2023/06/02 09:38:13;;;;;;;3.47;3.03;;;;;;;18.40;77.34;102297.63;5035199;28;20771;-42
2023/06/02 09:40:42;;;;;;;6.03;3.10;;;;;;;18.23;76.13;102313.44;5034532;28;20459;-43
2023/06/02 09:43:12;;;;;;;4.83;3.37;;;;;;;18.37;78.14;102308.06;5034851;28;20452;-44
2023/06/02 09:45:59;;;;;;;3.03;2.73;;;;;;;18.48;75.72;102318.22;5035131;28;20477;-43
2023/06/02 09:48:28;;;;;;;3.20;2.90;;;;;;;18.62;75.66;102309.88;5034943;28;20475;-44
2023/06/02 09:50:56;;;;;;;3.60;3.17;;;;;;;18.54;77.38;102318.22;5034344;28;20522;-42
2023/06/02 09:53:25;;;;;;;3.47;3.27;;;;;;;18.77;78.10;102315.03;5034701;28;20483;-44
2023/06/02 09:55:53;;;;;;;4.00;3.70;;;;;;;18.85;72.69;102322.91;5035048;28;20481;-43
2023/06/02 09:58:21;;;;;;;4.53;4.20;;;;;;;18.87;74.38;102328.94;5034821;28;20435;-45
2023/06/02 10:00:50;;;;;;;3.90;3.60;;;;;;;19.20;67.76;102315.31;5034169;28;20463;-44
2023/06/02 10:03:18;;;;;;;4.00;3.70;;;;;;;18.87;62.27;102323.53;5034329;28;20546;-45
2023/06/02 10:05:53;;;;;;;3.80;3.60;;;;;;;18.86;61.08;102321.88;5034814;28;20466;-44
2023/06/02 10:08:31;;;;;;;3.30;3.20;;;;;;;19.09;61.12;102326.78;5034795;28;20522;-45
2023/06/02 10:11:07;;;;;;;2.93;2.73;;;;;;;18.98;59.76;102333.69;5033943;28;20471;-44
2023/06/02 10:13:57;;;;;;;2.83;2.60;;;;;;;18.96;59.48;102327.69;5034092;28;20479;-46
2023/06/02 10:16:53;;;;;;;3.47;2.83;;;;;;;18.69;59.26;102326.94;5036451;22;20492;-47
2023/06/02 10:19:41;;;;;;;3.23;3.03;;;;;;;18.84;56.67;102325.84;5014603;28;21008;-47
2023/06/02 10:22:25;;;;;;;4.87;3.67;;;;;;;18.96;53.98;102333.09;5013715;28;20468;-46
2023/06/02 10:25:06;;;;;;;2.90;2.70;;;;;;;18.78;50.79;102319.41;5014733;28;20798;-44
2023/06/02 10:27:36;;;;;;;3.73;3.43;;;;;;;18.54;49.07;102356.06;5019419;28;21026;-46
2023/06/02 10:30:05;;;;;;;3.97;3.30;;;;;;;18.71;49.44;102332.09;5033750;28;20424;-49
2023/06/02 10:32:44;;;;;;;3.60;3.40;;;;;;;18.90;47.46;102347.44;5033854;28;20472;-43
2023/06/02 10:35:12;;;;;;;3.23;2.93;;;;;;;19.06;46.88;102340.72;5034304;28;20438;-47
2023/06/02 10:37:41;;;;;;;3.20;2.90;;;;;;;19.02;45.58;102342.22;5034095;28;20455;-44
2023/06/02 10:40:11;;;;;;;3.23;3.00;;;;;;;19.05;45.68;102348.03;5033475;28;20469;-44
2023/06/02 10:42:59;;;;;;;3.80;3.57;;;;;;;18.78;44.15;102358.09;5033794;28;20424;-45
2023/06/02 10:45:37;;;;;;;3.43;3.17;;;;;;;19.03;44.40;102339.28;5033729;28;20435;-44
2023/06/02 10:48:35;;;;;;;3.03;2.83;;;;;;;19.17;44.04;102346.31;5033961;28;20813;-44
2023/06/02 10:51:03;;;;;;;3.50;3.23;;;;;;;19.06;40.42;102341.56;5033257;28;20509;-47
2023/06/02 10:53:32;;;;;;;3.77;2.70;;;;;;;19.10;41.29;102341.97;5033660;28;20577;-44
2023/06/02 10:56:33;;;;;;;2.70;2.53;;;;;;;19.23;42.42;102348.13;5033435;28;20439;-44
2023/06/02 10:59:02;;;;;;;3.30;3.10;;;;;;;19.15;41.19;102366.47;5033430;28;21091;-45
2023/06/02 11:01:49;;;;;;;3.40;3.20;;;;;;;19.17;42.71;102359.84;5032870;28;20468;-49
2023/06/02 11:04:43;;;;;;;2.63;2.53;;;;;;;19.20;42.80;102364.00;5033762;28;20431;-49
2023/06/02 11:07:18;;;;;;;3.30;2.83;;;;;;;19.13;42.69;102355.06;5023622;28;20478;-45
2023/06/02 11:09:47;;;;;;;2.80;2.70;;;;;;;19.35;44.22;102361.84;5033521;28;20832;-47
2023/06/02 11:12:15;;;;;;;3.57;3.23;;;;;;;19.50;45.86;102367.00;5032562;28;20464;-44
2023/06/02 11:15:18;;;;;;;3.27;2.83;;;;;;;19.34;44.80;102371.81;5033511;28;20471;-47
2023/06/02 11:17:50;;;;;;;4.10;3.00;;;;;;;19.26;43.87;102365.84;5033003;28;20464;-45
2023/06/02 11:20:19;;;;;;;3.70;2.87;;;;;;;19.38;44.12;102372.22;5032561;28;21079;-46
2023/06/02 11:22:47;;;;;;;3.30;3.00;;;;;;;19.24;43.60;102371.44;5032926;28;20486;-45
2023/06/02 11:25:16;;;;;;;5.47;3.40;;;;;;;19.40;42.53;102363.91;5033098;28;20936;-44
2023/06/02 11:27:45;;;;;;;2.73;2.63;;;;;;;19.09;42.11;102373.56;5028152;28;20539;-46
2023/06/02 11:30:15;;;;;;;2.97;2.77;;;;;;;19.39;42.39;102356.81;5032485;28;20420;-46